createdAt,value
2023-02-26T00:01:29.230Z,-2.10
2023-02-26T00:03:58.698Z,-2.10
2023-02-26T00:06:29.181Z,-2.10
2023-02-26T00:08:56.832Z,-2.10
2023-02-26T00:11:24.365Z,-2.10
2023-02-26T00:13:52.092Z,-2.10
2023-02-26T00:16:31.592Z,-2.10
2023-02-26T00:19:06.160Z,-2.10
2023-02-26T00:21:34.882Z,-2.10
2023-02-26T00:24:02.377Z,-2.10
2023-02-26T00:26:31.673Z,-2.10
2023-02-26T00:28:59.175Z,-2.10
2023-02-26T00:31:26.412Z,-2.10
2023-02-26T00:33:55.190Z,-2.10
2023-02-26T00:37:09.256Z,-2.10
2023-02-26T00:40:06.979Z,-2.10
2023-02-26T00:42:36.468Z,-2.10
2023-02-26T00:45:04.651Z,-2.10
2023-02-26T00:47:45.496Z,-2.10
2023-02-26T00:50:15.922Z,-2.10
2023-02-26T00:53:12.644Z,-2.10
2023-02-26T00:55:39.552Z,-2.10
2023-02-26T00:58:06.671Z,-2.10
2023-02-26T01:00:35.075Z,-2.20
2023-02-26T01:03:02.560Z,-2.10
2023-02-26T01:05:31.673Z,-2.20
2023-02-26T01:08:39.717Z,-2.20
2023-02-26T01:11:07.140Z,-2.10
2023-02-26T01:13:34.172Z,-2.10
2023-02-26T01:16:09.528Z,-2.10
2023-02-26T01:18:46.157Z,-2.10
2023-02-26T01:21:19.339Z,-2.10
2023-02-26T01:23:50.356Z,-2.00
2023-02-26T01:26:26.398Z,-2.00
2023-02-26T01:28:54.338Z,-2.00
2023-02-26T01:31:34.284Z,-2.10
2023-02-26T01:34:20.072Z,-2.10
2023-02-26T01:37:18.058Z,-2.00
2023-02-26T01:39:49.897Z,-2.00
2023-02-26T01:42:21.858Z,-2.00
2023-02-26T01:44:48.772Z,-2.00
2023-02-26T01:47:20.057Z,-2.00
2023-02-26T01:49:47.535Z,-2.00
2023-02-26T01:52:36.215Z,-2.00
2023-02-26T01:55:04.964Z,-2.00
2023-02-26T01:57:32.718Z,-2.00
2023-02-26T01:59:59.751Z,-2.00
2023-02-26T02:02:27.901Z,-2.10
2023-02-26T02:04:55.719Z,-2.10
2023-02-26T02:07:22.618Z,-2.10
2023-02-26T02:09:50.244Z,-2.10
2023-02-26T02:12:51.332Z,-2.10
2023-02-26T02:15:25.806Z,-2.10
2023-02-26T02:18:02.410Z,-2.20
2023-02-26T02:20:41.075Z,-2.20
2023-02-26T02:23:20.168Z,-2.20
2023-02-26T02:26:28.560Z,-2.20
2023-02-26T02:29:07.616Z,-2.20
2023-02-26T02:31:37.603Z,-2.30
2023-02-26T02:34:14.316Z,-2.30
2023-02-26T02:37:11.816Z,-2.40
2023-02-26T02:39:50.231Z,-2.40
2023-02-26T02:42:20.515Z,-2.40
2023-02-26T02:44:59.295Z,-2.40
2023-02-26T02:47:29.060Z,-2.40
2023-02-26T02:50:17.102Z,-2.50
2023-02-26T02:53:26.368Z,-2.50
2023-02-26T02:56:05.138Z,-2.60
2023-02-26T02:58:38.942Z,-2.70
2023-02-26T03:01:11.518Z,-2.70
2023-02-26T03:04:10.042Z,-2.70
2023-02-26T03:06:39.639Z,-2.70
2023-02-26T03:09:09.130Z,-2.70
2023-02-26T03:11:37.715Z,-2.70
2023-02-26T03:14:06.240Z,-2.70
2023-02-26T03:17:05.292Z,-2.70
2023-02-26T03:19:49.388Z,-2.70
2023-02-26T03:22:28.886Z,-2.70
2023-02-26T03:25:08.160Z,-2.70
2023-02-26T03:27:59.083Z,-2.70
2023-02-26T03:30:32.892Z,-2.70
2023-02-26T03:33:22.760Z,-2.70
2023-02-26T03:35:52.064Z,-2.70
2023-02-26T03:38:27.511Z,-2.60
2023-02-26T03:41:01.732Z,-2.70
2023-02-26T03:43:39.441Z,-2.70
2023-02-26T03:46:12.129Z,-2.70
2023-02-26T03:48:39.310Z,-2.70
2023-02-26T03:51:12.447Z,-2.80
2023-02-26T03:53:55.463Z,-2.80
2023-02-26T03:56:29.960Z,-2.80
2023-02-26T03:58:57.513Z,-2.90
2023-02-26T04:01:30.247Z,-2.90
2023-02-26T04:04:09.692Z,-2.90
2023-02-26T04:06:36.931Z,-2.90
2023-02-26T04:09:06.847Z,-3.00
2023-02-26T04:11:35.699Z,-2.90
2023-02-26T04:14:02.647Z,-3.10
2023-02-26T04:16:30.738Z,-3.10
2023-02-26T04:18:57.759Z,-3.10
2023-02-26T04:21:24.823Z,-3.20
2023-02-26T04:23:51.714Z,-3.20
2023-02-26T04:26:19.531Z,-3.30
2023-02-26T04:28:46.567Z,-3.20
2023-02-26T04:31:13.647Z,-3.30
2023-02-26T04:33:40.616Z,-3.30
2023-02-26T04:36:08.037Z,-3.30
2023-02-26T04:38:35.087Z,-3.40
2023-02-26T04:41:02.227Z,-3.40
2023-02-26T04:43:29.232Z,-3.60
2023-02-26T04:45:56.269Z,-3.50
2023-02-26T04:48:23.633Z,-3.50
2023-02-26T04:50:50.633Z,-3.50
2023-02-26T04:53:17.638Z,-3.40
2023-02-26T04:55:44.720Z,-3.50
2023-02-26T04:58:11.721Z,-3.50
2023-02-26T05:00:38.632Z,-3.50
2023-02-26T05:03:05.741Z,-3.50
2023-02-26T05:05:33.076Z,-3.50
2023-02-26T05:08:00.367Z,-3.70
2023-02-26T05:10:27.757Z,-3.70
2023-02-26T05:12:55.784Z,-3.70
2023-02-26T05:15:22.729Z,-3.70
2023-02-26T05:17:50.845Z,-3.70
2023-02-26T05:20:19.190Z,-3.70
2023-02-26T05:22:47.679Z,-3.80
2023-02-26T05:25:14.864Z,-3.70
2023-02-26T05:27:43.856Z,-3.70
2023-02-26T05:30:14.357Z,-3.90
2023-02-26T05:32:42.102Z,-3.80
2023-02-26T05:35:10.596Z,-3.60
2023-02-26T05:37:38.327Z,-3.70
2023-02-26T05:40:10.335Z,-3.70
2023-02-26T05:42:38.252Z,-3.70
2023-02-26T05:45:06.332Z,-3.60
2023-02-26T05:47:37.744Z,-3.60
2023-02-26T05:50:06.405Z,-3.50
2023-02-26T05:52:33.525Z,-3.70
2023-02-26T05:55:01.277Z,-3.70
2023-02-26T05:57:29.780Z,-3.70
2023-02-26T05:59:56.656Z,-3.80
2023-02-26T06:02:23.635Z,-3.80
2023-02-26T06:04:50.576Z,-3.80
2023-02-26T06:07:17.533Z,-3.90
2023-02-26T06:09:44.577Z,-3.90
2023-02-26T06:12:11.746Z,-4.00
2023-02-26T06:14:38.678Z,-4.00
2023-02-26T06:17:09.134Z,-4.00
2023-02-26T06:19:36.027Z,-4.10
2023-02-26T06:22:02.893Z,-4.10
2023-02-26T06:24:29.963Z,-4.10
2023-02-26T06:26:56.906Z,-4.10
2023-02-26T06:29:24.096Z,-4.10
2023-02-26T06:31:51.318Z,-4.10
2023-02-26T06:34:19.637Z,-4.10
2023-02-26T06:36:46.607Z,-4.10
2023-02-26T06:39:13.826Z,-4.20
2023-02-26T06:41:40.774Z,-4.10
2023-02-26T06:44:07.800Z,-4.10
2023-02-26T06:46:34.748Z,-4.00
2023-02-26T06:49:01.613Z,-4.10
2023-02-26T06:51:29.399Z,-4.10
2023-02-26T06:53:56.701Z,-4.10
2023-02-26T06:56:24.451Z,-4.10
2023-02-26T06:58:51.665Z,-4.00
2023-02-26T07:01:18.901Z,-4.00
2023-02-26T07:03:45.827Z,-4.00
2023-02-26T07:06:26.957Z,-4.00
2023-02-26T07:08:54.983Z,-4.10
2023-02-26T07:11:22.055Z,-3.90
2023-02-26T07:13:49.135Z,-3.90
2023-02-26T07:16:16.083Z,-3.80
2023-02-26T07:18:43.141Z,-3.70
2023-02-26T07:21:10.078Z,-3.60
2023-02-26T07:23:37.097Z,-3.50
2023-02-26T07:26:04.179Z,-3.40
2023-02-26T07:28:31.085Z,-3.40
2023-02-26T07:30:58.768Z,-3.40
2023-02-26T07:33:28.455Z,-3.40
2023-02-26T07:35:55.419Z,-3.60
2023-02-26T07:38:22.381Z,-3.60
2023-02-26T07:40:49.548Z,-3.60
2023-02-26T07:43:16.445Z,-3.50
2023-02-26T07:45:43.418Z,-3.50
2023-02-26T07:48:10.312Z,-3.40
2023-02-26T07:50:37.483Z,-3.60
2023-02-26T07:53:04.537Z,-3.60
2023-02-26T07:55:31.633Z,-3.60
2023-02-26T07:57:58.679Z,-3.50
2023-02-26T08:00:25.678Z,-3.50
2023-02-26T08:02:52.807Z,-3.40
2023-02-26T08:05:19.811Z,-3.40
2023-02-26T08:07:46.866Z,-3.20
2023-02-26T08:10:13.920Z,-3.40
2023-02-26T08:12:41.045Z,-3.40
2023-02-26T08:15:08.573Z,-3.40
2023-02-26T08:17:35.556Z,-3.50
2023-02-26T08:20:02.491Z,-3.40
2023-02-26T08:22:29.676Z,-3.50
2023-02-26T08:24:56.995Z,-3.50
2023-02-26T08:27:24.004Z,-3.50
2023-02-26T08:29:51.542Z,-3.40
2023-02-26T08:32:20.071Z,-3.40
2023-02-26T08:34:47.341Z,-3.30
2023-02-26T08:37:14.880Z,-3.20
2023-02-26T08:39:41.973Z,-3.20
2023-02-26T08:42:10.460Z,-3.20
2023-02-26T08:44:40.290Z,-3.10
2023-02-26T08:47:07.321Z,-3.10
2023-02-26T08:49:34.552Z,-3.10
2023-02-26T08:52:01.505Z,-3.10
2023-02-26T08:54:28.436Z,-2.90
2023-02-26T08:56:57.764Z,-2.90
2023-02-26T08:59:25.576Z,-2.90
2023-02-26T09:01:52.496Z,-3.00
2023-02-26T09:04:19.575Z,-3.00
2023-02-26T09:06:46.561Z,-3.00
2023-02-26T09:09:14.387Z,-3.10
2023-02-26T09:11:41.828Z,-3.10
2023-02-26T09:14:08.962Z,-3.10
2023-02-26T09:16:37.178Z,-3.10
2023-02-26T09:19:05.424Z,-3.10
2023-02-26T09:21:32.840Z,-3.10
2023-02-26T09:23:59.929Z,-3.20
2023-02-26T09:26:27.459Z,-3.20
2023-02-26T09:28:54.693Z,-3.20
2023-02-26T09:31:21.698Z,-3.10
2023-02-26T09:33:49.941Z,-3.10
2023-02-26T09:36:17.925Z,-3.00
2023-02-26T09:38:46.089Z,-2.90
2023-02-26T09:41:26.455Z,-2.80
2023-02-26T09:44:18.387Z,-2.80
2023-02-26T09:47:16.645Z,-2.70
2023-02-26T09:50:02.152Z,-2.70
2023-02-26T09:53:01.483Z,-2.70
2023-02-26T09:55:36.628Z,-2.70
2023-02-26T09:58:06.171Z,-2.60
2023-02-26T10:00:36.660Z,-2.40
2023-02-26T10:03:12.100Z,-2.50
2023-02-26T10:06:30.950Z,-2.50
2023-02-26T10:09:26.084Z,-2.50
2023-02-26T10:11:58.533Z,-2.50
2023-02-26T10:14:36.161Z,-2.40
2023-02-26T10:17:47.585Z,-2.50
2023-02-26T10:20:20.428Z,-2.40
2023-02-26T10:23:06.219Z,-2.20
2023-02-26T10:25:47.867Z,-2.40
2023-02-26T10:28:14.680Z,-2.40
2023-02-26T10:31:05.026Z,-2.30
2023-02-26T10:33:47.080Z,-2.30
2023-02-26T10:36:25.523Z,-2.30
2023-02-26T10:39:11.732Z,-2.30
2023-02-26T10:41:38.630Z,-2.40
2023-02-26T10:44:22.405Z,-2.30
2023-02-26T10:47:05.774Z,-2.20
2023-02-26T10:49:44.900Z,-2.30
2023-02-26T10:52:19.568Z,-2.20
2023-02-26T10:54:54.768Z,-2.20
2023-02-26T10:57:27.883Z,-2.30
2023-02-26T10:59:57.496Z,-2.30
2023-02-26T11:02:40.284Z,-2.30
2023-02-26T11:05:17.568Z,-2.20
2023-02-26T11:07:48.302Z,-2.00
2023-02-26T11:10:20.174Z,-2.10
2023-02-26T11:12:47.418Z,-2.10
2023-02-26T11:15:18.820Z,-1.90
2023-02-26T11:17:49.245Z,-1.80
2023-02-26T11:20:45.029Z,-1.70
2023-02-26T11:23:16.162Z,-1.70
2023-02-26T11:25:44.937Z,-1.60
2023-02-26T11:28:30.503Z,-1.60
2023-02-26T11:31:00.763Z,-1.50
2023-02-26T11:33:34.424Z,-1.30
2023-02-26T11:36:06.351Z,-1.30
2023-02-26T11:38:33.902Z,-1.40
2023-02-26T11:41:02.403Z,-1.30
2023-02-26T11:43:38.011Z,-1.10
2023-02-26T11:46:06.248Z,-1.30
2023-02-26T11:48:43.742Z,-1.40
2023-02-26T11:51:25.824Z,-1.50
2023-02-26T11:53:54.419Z,-1.30
2023-02-26T11:56:31.770Z,0.30
2023-02-26T11:59:06.226Z,0.00
2023-02-26T12:01:33.079Z,0.00
2023-02-26T12:04:03.075Z,0.00
2023-02-26T12:06:30.830Z,-0.40
2023-02-26T12:08:57.727Z,-0.80
2023-02-26T12:11:30.916Z,-1.00
2023-02-26T12:14:39.199Z,-1.10
2023-02-26T12:17:09.764Z,-1.00
2023-02-26T12:19:47.938Z,-0.90
2023-02-26T12:22:43.149Z,-0.80
2023-02-26T12:25:10.051Z,-0.90
2023-02-26T12:27:52.841Z,-1.10
2023-02-26T12:30:51.878Z,-1.40
2023-02-26T12:33:18.742Z,-1.40
2023-02-26T12:36:00.139Z,-1.30
2023-02-26T12:38:44.067Z,-1.30
2023-02-26T12:41:40.486Z,-1.40
2023-02-26T12:44:23.999Z,-1.20
2023-02-26T12:47:15.500Z,-1.20
2023-02-26T12:50:07.186Z,-1.20
2023-02-26T12:53:11.486Z,-1.30
2023-02-26T12:55:53.421Z,-1.40
2023-02-26T12:58:52.397Z,-1.40
2023-02-26T13:02:00.856Z,-1.50
2023-02-26T13:04:28.333Z,-1.50
2023-02-26T13:07:16.226Z,-1.50
2023-02-26T13:10:21.432Z,-1.40
2023-02-26T13:13:18.945Z,-1.40
2023-02-26T13:16:08.856Z,-1.40
2023-02-26T13:18:46.958Z,-1.30
2023-02-26T13:21:33.261Z,-1.20
2023-02-26T13:24:19.253Z,-1.20
2023-02-26T13:26:48.257Z,-1.20
2023-02-26T13:29:17.018Z,-1.20
2023-02-26T13:32:13.920Z,-1.20
2023-02-26T13:35:04.718Z,-1.20
2023-02-26T13:37:45.847Z,-1.20
2023-02-26T13:40:17.518Z,-1.30
2023-02-26T13:43:10.602Z,-1.30
2023-02-26T13:45:56.724Z,-1.30
2023-02-26T13:48:50.188Z,-1.30
2023-02-26T13:51:32.442Z,-1.20
2023-02-26T13:54:28.871Z,-1.20
2023-02-26T13:57:28.693Z,-1.30
2023-02-26T14:00:12.642Z,-1.40
2023-02-26T14:02:53.951Z,-1.30
2023-02-26T14:05:30.161Z,-1.40
2023-02-26T14:08:22.256Z,-1.30
2023-02-26T14:11:05.690Z,-1.40
2023-02-26T14:13:37.380Z,-1.40
2023-02-26T14:16:22.028Z,-1.50
2023-02-26T14:18:48.848Z,-1.50
2023-02-26T14:21:28.313Z,-1.60
2023-02-26T14:24:03.482Z,-1.80
2023-02-26T14:30:02.315Z,-1.90
2023-02-26T14:32:56.873Z,-2.00
2023-02-26T14:35:32.291Z,-2.00
2023-02-26T14:38:03.880Z,-2.00
2023-02-26T14:40:37.488Z,-2.10
2023-02-26T14:43:07.134Z,-2.10
2023-02-26T14:45:42.592Z,-2.00
2023-02-26T14:48:18.935Z,-2.00
2023-02-26T14:51:15.108Z,-2.00
2023-02-26T14:53:54.450Z,-2.10
2023-02-26T14:56:55.536Z,-2.10
2023-02-26T14:59:34.037Z,-2.10
2023-02-26T15:02:25.908Z,-2.10
2023-02-26T15:05:23.507Z,-2.10
2023-02-26T15:08:09.157Z,-2.10
2023-02-26T15:10:53.997Z,-2.10
2023-02-26T15:13:50.435Z,-2.10
2023-02-26T15:16:55.311Z,-2.20
2023-02-26T15:19:25.000Z,-2.20
2023-02-26T15:22:03.304Z,-2.20
2023-02-26T15:24:31.823Z,-2.20
2023-02-26T15:27:06.511Z,-2.20
2023-02-26T15:29:38.258Z,-2.10
2023-02-26T15:32:19.150Z,-2.20
2023-02-26T15:34:47.956Z,-2.20
2023-02-26T15:37:26.343Z,-2.10
2023-02-26T15:39:53.538Z,-2.10
2023-02-26T15:42:26.023Z,-2.20
2023-02-26T15:44:57.078Z,-2.20
2023-02-26T15:47:24.432Z,-2.20
2023-02-26T15:49:51.364Z,-2.20
2023-02-26T15:52:22.820Z,-2.30
2023-02-26T15:55:00.157Z,-2.30
2023-02-26T15:57:30.869Z,-2.30
2023-02-26T16:00:10.805Z,-2.30
2023-02-26T16:02:37.677Z,-2.30
2023-02-26T16:05:05.364Z,-2.40
2023-02-26T16:07:32.358Z,-2.40
2023-02-26T16:10:07.814Z,-2.30
2023-02-26T16:12:38.544Z,-2.30
2023-02-26T16:15:12.668Z,-2.30
2023-02-26T16:17:51.005Z,-2.30
2023-02-26T16:20:22.048Z,-2.30
2023-02-26T16:22:52.319Z,-2.30
2023-02-26T16:25:46.995Z,-2.30
2023-02-26T16:28:21.371Z,-2.40
2023-02-26T16:30:54.136Z,-2.30
2023-02-26T16:33:24.377Z,-2.30
2023-02-26T16:36:02.709Z,-2.40
2023-02-26T16:38:44.520Z,-2.30
2023-02-26T16:41:12.492Z,-2.40
2023-02-26T16:43:45.501Z,-2.30
2023-02-26T16:46:16.845Z,-2.30
2023-02-26T16:48:56.549Z,-2.30
2023-02-26T16:51:27.397Z,-2.30
2023-02-26T16:53:58.233Z,-2.30
2023-02-26T16:56:29.920Z,-2.30
2023-02-26T16:59:03.083Z,-2.30
2023-02-26T17:01:38.051Z,-2.30
2023-02-26T17:04:07.233Z,-2.30
2023-02-26T17:06:39.059Z,-2.20
2023-02-26T17:09:10.440Z,-2.30
2023-02-26T17:11:44.355Z,-2.30
2023-02-26T17:14:11.345Z,-2.20
2023-02-26T17:16:38.247Z,-2.20
2023-02-26T17:19:05.409Z,-2.20
2023-02-26T17:21:32.877Z,-2.20
2023-02-26T17:24:00.028Z,-2.20
2023-02-26T17:26:27.204Z,-2.20
2023-02-26T17:28:54.098Z,-2.20
2023-02-26T17:31:21.137Z,-2.20
2023-02-26T17:33:48.165Z,-2.20
2023-02-26T17:36:16.706Z,-2.10
2023-02-26T17:38:47.101Z,-2.10
2023-02-26T17:41:18.595Z,-2.10
2023-02-26T17:43:45.671Z,-2.10
2023-02-26T17:46:13.282Z,-2.10
2023-02-26T17:48:41.613Z,-2.10
2023-02-26T17:51:10.292Z,-2.10
2023-02-26T17:53:41.241Z,-2.10
2023-02-26T17:56:28.599Z,-2.10
2023-02-26T17:58:58.339Z,-2.10
2023-02-26T18:01:29.267Z,-2.20
2023-02-26T18:03:57.102Z,-2.10
2023-02-26T18:06:24.742Z,-2.10
2023-02-26T18:08:52.377Z,-2.00
2023-02-26T18:11:20.513Z,-2.20
2023-02-26T18:13:47.565Z,-2.10
2023-02-26T18:16:20.485Z,-2.10
2023-02-26T18:18:47.954Z,-2.20
2023-02-26T18:21:15.281Z,-2.20
2023-02-26T18:23:42.267Z,-2.20
2023-02-26T18:26:10.562Z,-2.20
2023-02-26T18:28:37.584Z,-2.20
2023-02-26T18:31:08.835Z,-2.20
2023-02-26T18:33:38.809Z,-2.30
2023-02-26T18:36:07.531Z,-2.30
2023-02-26T18:38:34.609Z,-2.30
2023-02-26T18:41:02.294Z,-2.30
2023-02-26T18:43:29.909Z,-2.30
2023-02-26T18:46:01.338Z,-2.40
2023-02-26T18:48:29.076Z,-2.40
2023-02-26T18:50:56.084Z,-2.40
2023-02-26T18:53:23.864Z,-2.30
2023-02-26T18:55:52.863Z,-2.40
2023-02-26T18:58:21.056Z,-2.40
2023-02-26T19:00:48.107Z,-2.40
2023-02-26T19:03:15.089Z,-2.40
2023-02-26T19:05:42.509Z,-2.40
2023-02-26T19:08:10.116Z,-2.40
2023-02-26T19:10:37.401Z,-2.40
2023-02-26T19:13:04.546Z,-2.40
2023-02-26T19:15:31.681Z,-2.40
2023-02-26T19:17:58.792Z,-2.40
2023-02-26T19:20:25.770Z,-2.30
2023-02-26T19:22:52.770Z,-2.30
2023-02-26T19:25:24.241Z,-2.30
2023-02-26T19:27:53.693Z,-2.30
2023-02-26T19:30:21.996Z,-2.30
2023-02-26T19:32:49.435Z,-2.30
2023-02-26T19:35:16.726Z,-2.30
2023-02-26T19:37:44.037Z,-2.30
2023-02-26T19:40:16.478Z,-2.20
2023-02-26T19:42:44.511Z,-2.30
2023-02-26T19:45:12.639Z,-2.30
2023-02-26T19:47:39.710Z,-2.30
2023-02-26T19:50:08.378Z,-2.30
2023-02-26T19:52:37.325Z,-2.20
2023-02-26T19:55:05.673Z,-2.20
2023-02-26T19:57:32.691Z,-2.20
2023-02-26T19:59:59.731Z,-2.20
2023-02-26T20:02:26.977Z,-2.20
2023-02-26T20:04:53.909Z,-2.10
2023-02-26T20:07:20.839Z,-2.10
2023-02-26T20:09:49.712Z,-2.10
2023-02-26T20:12:16.796Z,-2.10
2023-02-26T20:14:43.901Z,-2.00
2023-02-26T20:17:10.821Z,-2.00
2023-02-26T20:19:37.828Z,-1.90
2023-02-26T20:22:04.812Z,-1.90
2023-02-26T20:24:32.959Z,-1.90
2023-02-26T20:27:00.410Z,-1.80
2023-02-26T20:29:27.397Z,-1.90
2023-02-26T20:31:55.112Z,-1.80
2023-02-26T20:34:22.778Z,-1.80
2023-02-26T20:36:50.754Z,-1.80
2023-02-26T20:39:21.214Z,-1.80
2023-02-26T20:41:48.418Z,-1.80
2023-02-26T20:44:15.314Z,-1.70
2023-02-26T20:46:42.255Z,-1.70
2023-02-26T20:49:12.152Z,-1.70
2023-02-26T20:51:43.426Z,-1.80
2023-02-26T20:54:16.325Z,-1.70
2023-02-26T20:56:43.604Z,-1.70
2023-02-26T20:59:10.605Z,-1.70
2023-02-26T21:01:37.578Z,-1.60
2023-02-26T21:04:08.918Z,-1.60
2023-02-26T21:06:36.532Z,-1.70
2023-02-26T21:09:04.928Z,-1.70
2023-02-26T21:11:34.582Z,-1.70
2023-02-26T21:14:03.376Z,-1.70
2023-02-26T21:16:30.821Z,-1.70
2023-02-26T21:19:00.373Z,-1.70
2023-02-26T21:21:27.932Z,-1.70
2023-02-26T21:23:55.538Z,-1.70
2023-02-26T21:26:23.696Z,-1.70
2023-02-26T21:28:50.948Z,-1.70
2023-02-26T21:31:19.937Z,-1.70
2023-02-26T21:33:47.039Z,-1.70
2023-02-26T21:36:15.882Z,-1.70
2023-02-26T21:38:42.979Z,-1.70
2023-02-26T21:41:11.485Z,-1.70
2023-02-26T21:43:39.275Z,-1.70
2023-02-26T21:46:06.838Z,-1.70
2023-02-26T21:48:34.086Z,-1.70
2023-02-26T21:51:01.679Z,-1.80
2023-02-26T21:53:28.705Z,-1.70
2023-02-26T21:55:56.909Z,-1.70
2023-02-26T21:58:24.334Z,-1.70
2023-02-26T22:00:51.409Z,-1.80
2023-02-26T22:03:20.535Z,-1.80
2023-02-26T22:05:51.385Z,-1.80
2023-02-26T22:08:18.622Z,-1.80
2023-02-26T22:10:48.322Z,-1.80
2023-02-26T22:13:15.529Z,-1.80
2023-02-26T22:15:42.898Z,-1.70
2023-02-26T22:18:09.864Z,-1.70
2023-02-26T22:20:36.941Z,-1.70
2023-02-26T22:23:04.765Z,-1.70
2023-02-26T22:25:32.118Z,-1.80
2023-02-26T22:27:59.548Z,-1.70
2023-02-26T22:30:26.523Z,-1.70
2023-02-26T22:32:53.385Z,-1.70
2023-02-26T22:35:20.251Z,-1.70
2023-02-26T22:37:47.151Z,-1.70
2023-02-26T22:40:14.929Z,-1.80
2023-02-26T22:42:43.159Z,-1.80
2023-02-26T22:45:17.110Z,-1.80
2023-02-26T22:47:45.685Z,-1.80
2023-02-26T22:50:13.414Z,-1.80
2023-02-26T22:52:40.623Z,-1.80
2023-02-26T22:55:09.151Z,-1.80
2023-02-26T22:57:36.033Z,-1.80
2023-02-26T23:00:08.548Z,-1.80
2023-02-26T23:02:38.899Z,-1.80
2023-02-26T23:05:09.334Z,-1.80
2023-02-26T23:07:37.925Z,-1.80
2023-02-26T23:10:06.099Z,-1.80
2023-02-26T23:12:33.620Z,-1.80
2023-02-26T23:15:00.683Z,-1.80
2023-02-26T23:17:28.098Z,-1.80
2023-02-26T23:19:55.078Z,-1.80
2023-02-26T23:22:23.381Z,-1.80
2023-02-26T23:24:50.232Z,-1.80
2023-02-26T23:27:17.429Z,-1.80
2023-02-26T23:29:45.831Z,-1.80
2023-02-26T23:32:15.756Z,-1.80
2023-02-26T23:34:42.751Z,-1.80
2023-02-26T23:37:10.223Z,-1.90
2023-02-26T23:39:37.109Z,-1.90
2023-02-26T23:42:04.282Z,-1.80
2023-02-26T23:44:31.239Z,-1.90
2023-02-26T23:46:58.229Z,-1.90
2023-02-26T23:49:25.165Z,-1.80
2023-02-26T23:51:52.047Z,-1.90
2023-02-26T23:54:18.937Z,-1.90
2023-02-26T23:56:47.324Z,-1.90
2023-02-26T23:59:14.509Z,-1.90
